sensor_id;sensor_type;location;lat;lon;timestamp;pressure;altitude;pressure_sealevel;temperature;humidity
73974;BME280;62336;-26.094;27.994;2023-02-03T04:04:28;84989.54;;;31.63;31.58
73974;BME280;62336;-26.094;27.994;2023-02-03T04:04:35;84989.62;;;31.13;31.61
73974;BME280;62336;-26.094;27.994;2023-02-03T04:06:59;84992.68;;;30.90;31.80
73974;BME280;62336;-26.094;27.994;2023-02-03T04:09:24;84994.67;;;30.84;32.08
73974;BME280;62336;-26.094;27.994;2023-02-03T04:11:50;84997.50;;;30.87;32.17
73974;BME280;62336;-26.094;27.994;2023-02-03T04:14:16;84999.11;;;31.05;31.81
73974;BME280;62336;-26.094;27.994;2023-02-03T04:16:41;85007.18;;;30.45;32.50
73974;BME280;62336;-26.094;27.994;2023-02-03T04:19:07;85013.41;;;30.16;32.42
73974;BME280;62336;-26.094;27.994;2023-02-03T04:21:32;85020.95;;;31.03;31.91
73974;BME280;62336;-26.094;27.994;2023-02-03T04:23:57;85026.37;;;31.10;32.07
73974;BME280;62336;-26.094;27.994;2023-02-03T04:26:23;85029.81;;;30.98;32.20
73974;BME280;62336;-26.094;27.994;2023-02-03T04:28:49;85031.17;;;31.20;32.25
73974;BME280;62336;-26.094;27.994;2023-02-03T04:31:15;85033.86;;;30.86;32.30
73974;BME280;62336;-26.094;27.994;2023-02-03T04:33:40;85038.25;;;31.40;32.13
73974;BME280;62336;-26.094;27.994;2023-02-03T04:36:06;85037.84;;;31.12;32.13
73974;BME280;62336;-26.094;27.994;2023-02-03T04:38:31;85036.83;;;30.98;32.13
73974;BME280;62336;-26.094;27.994;2023-02-03T04:40:57;85036.88;;;30.74;32.42
73974;BME280;62336;-26.094;27.994;2023-02-03T04:43:23;85038.56;;;30.32;32.62
73974;BME280;62336;-26.094;27.994;2023-02-03T04:45:48;85040.16;;;30.27;32.81
73974;BME280;62336;-26.094;27.994;2023-02-03T04:48:13;85040.96;;;30.18;32.91
73974;BME280;62336;-26.094;27.994;2023-02-03T04:50:39;85043.02;;;30.87;32.45
73974;BME280;62336;-26.094;27.994;2023-02-03T04:53:05;85044.94;;;30.65;32.22
73974;BME280;62336;-26.094;27.994;2023-02-03T04:55:30;85044.76;;;31.31;32.02
73974;BME280;62336;-26.094;27.994;2023-02-03T04:57:56;85045.55;;;30.49;32.35
73974;BME280;62336;-26.094;27.994;2023-02-03T05:00:21;85046.60;;;30.49;32.76
73974;BME280;62336;-26.094;27.994;2023-02-03T05:02:47;85048.76;;;30.87;32.45
73974;BME280;62336;-26.094;27.994;2023-02-03T05:05:12;85050.13;;;31.15;32.23
73974;BME280;62336;-26.094;27.994;2023-02-03T05:07:38;85056.10;;;31.07;32.25
73974;BME280;62336;-26.094;27.994;2023-02-03T05:10:04;85061.16;;;31.56;32.02
73974;BME280;62336;-26.094;27.994;2023-02-03T05:12:30;85064.85;;;31.70;31.59
73974;BME280;62336;-26.094;27.994;2023-02-03T05:14:55;85071.68;;;31.49;31.48
73974;BME280;62336;-26.094;27.994;2023-02-03T05:17:21;85073.14;;;31.00;31.85
73974;BME280;62336;-26.094;27.994;2023-02-03T05:19:47;85076.46;;;31.37;31.76
73974;BME280;62336;-26.094;27.994;2023-02-03T05:22:13;85075.10;;;30.46;32.14
73974;BME280;62336;-26.094;27.994;2023-02-03T05:24:39;85082.47;;;30.18;33.00
73974;BME280;62336;-26.094;27.994;2023-02-03T05:27:03;85083.28;;;30.63;32.30
73974;BME280;62336;-26.094;27.994;2023-02-03T05:29:29;85080.97;;;30.48;32.71
73974;BME280;62336;-26.094;27.994;2023-02-03T05:31:55;85081.57;;;30.38;32.88
73974;BME280;62336;-26.094;27.994;2023-02-03T05:34:21;85078.75;;;30.21;32.90
73974;BME280;62336;-26.094;27.994;2023-02-03T05:36:47;85077.70;;;30.15;32.91
73974;BME280;62336;-26.094;27.994;2023-02-03T05:39:12;85075.28;;;30.61;32.62
73974;BME280;62336;-26.094;27.994;2023-02-03T05:41:38;85073.67;;;30.88;32.07
73974;BME280;62336;-26.094;27.994;2023-02-03T05:44:04;85073.18;;;30.92;32.05
73974;BME280;62336;-26.094;27.994;2023-02-03T05:46:29;85070.68;;;30.78;32.23
73974;BME280;62336;-26.094;27.994;2023-02-03T05:48:55;85071.40;;;31.21;32.40
73974;BME280;62336;-26.094;27.994;2023-02-03T05:51:21;85069.30;;;30.41;32.94
73974;BME280;62336;-26.094;27.994;2023-02-03T05:53:47;85062.06;;;31.07;32.36
73974;BME280;62336;-26.094;27.994;2023-02-03T05:56:13;85063.90;;;30.71;32.97
73974;BME280;62336;-26.094;27.994;2023-02-03T05:58:38;85067.48;;;31.28;32.52
73974;BME280;62336;-26.094;27.994;2023-02-03T06:01:03;85070.95;;;30.60;33.17
73974;BME280;62336;-26.094;27.994;2023-02-03T06:03:29;85069.86;;;30.68;32.96
73974;BME280;62336;-26.094;27.994;2023-02-03T06:05:55;85073.06;;;31.75;31.95
73974;BME280;62336;-26.094;27.994;2023-02-03T06:08:21;85072.03;;;31.58;31.53
73974;BME280;62336;-26.094;27.994;2023-02-03T06:10:46;85073.38;;;31.29;32.21
73974;BME280;62336;-26.094;27.994;2023-02-03T06:13:13;85076.18;;;31.51;31.80
73974;BME280;62336;-26.094;27.994;2023-02-03T06:15:37;85078.20;;;31.05;32.34
73974;BME280;62336;-26.094;27.994;2023-02-03T06:18:03;85079.65;;;31.16;31.83
73974;BME280;62336;-26.094;27.994;2023-02-03T06:20:28;85078.68;;;31.24;31.86
73974;BME280;62336;-26.094;27.994;2023-02-03T06:22:53;85080.59;;;31.97;31.06
73974;BME280;62336;-26.094;27.994;2023-02-03T06:25:19;85083.43;;;31.85;31.12
73974;BME280;62336;-26.094;27.994;2023-02-03T06:27:45;85085.18;;;31.56;31.83
73974;BME280;62336;-26.094;27.994;2023-02-03T06:30:11;85084.35;;;32.11;31.22
73974;BME280;62336;-26.094;27.994;2023-02-03T06:32:36;85085.13;;;31.73;31.60
73974;BME280;62336;-26.094;27.994;2023-02-03T06:35:01;85084.27;;;32.37;30.62
73974;BME280;62336;-26.094;27.994;2023-02-03T06:37:27;85082.52;;;32.44;30.56
73974;BME280;62336;-26.094;27.994;2023-02-03T06:39:53;85082.63;;;31.85;30.92
73974;BME280;62336;-26.094;27.994;2023-02-03T06:42:18;85082.10;;;32.69;30.38
73974;BME280;62336;-26.094;27.994;2023-02-03T06:44:44;85084.38;;;32.48;30.73
73974;BME280;62336;-26.094;27.994;2023-02-03T06:47:10;85083.48;;;32.69;30.87
73974;BME280;62336;-26.094;27.994;2023-02-03T06:49:35;85079.59;;;32.29;30.85
73974;BME280;62336;-26.094;27.994;2023-02-03T06:52:00;85076.77;;;32.57;30.74
73974;BME280;62336;-26.094;27.994;2023-02-03T06:54:26;85076.35;;;33.27;30.28
73974;BME280;62336;-26.094;27.994;2023-02-03T06:56:51;85074.61;;;32.64;30.14
73974;BME280;62336;-26.094;27.994;2023-02-03T06:59:17;85072.14;;;32.91;29.93
73974;BME280;62336;-26.094;27.994;2023-02-03T07:01:43;85070.36;;;32.90;29.54
73974;BME280;62336;-26.094;27.994;2023-02-03T07:04:09;85070.33;;;32.95;29.11
73974;BME280;62336;-26.094;27.994;2023-02-03T07:06:34;85072.50;;;33.18;29.79
73974;BME280;62336;-26.094;27.994;2023-02-03T07:09:02;85070.32;;;33.53;28.27
73974;BME280;62336;-26.094;27.994;2023-02-03T07:11:27;85075.32;;;33.26;28.55
73974;BME280;62336;-26.094;27.994;2023-02-03T07:13:52;85077.43;;;33.79;28.18
73974;BME280;62336;-26.094;27.994;2023-02-03T07:16:17;85076.61;;;33.36;28.16
73974;BME280;62336;-26.094;27.994;2023-02-03T07:18:43;85074.04;;;33.31;28.62
73974;BME280;62336;-26.094;27.994;2023-02-03T07:21:08;85068.00;;;33.28;28.93
73974;BME280;62336;-26.094;27.994;2023-02-03T07:23:34;85063.36;;;33.10;28.59
73974;BME280;62336;-26.094;27.994;2023-02-03T07:26:01;85061.68;;;33.83;28.74
73974;BME280;62336;-26.094;27.994;2023-02-03T07:28:26;85067.27;;;33.43;29.32
73974;BME280;62336;-26.094;27.994;2023-02-03T07:30:52;85067.41;;;33.01;28.89
73974;BME280;62336;-26.094;27.994;2023-02-03T07:33:17;85065.70;;;33.49;28.40
73974;BME280;62336;-26.094;27.994;2023-02-03T07:35:43;85063.77;;;33.29;28.71
73974;BME280;62336;-26.094;27.994;2023-02-03T07:38:09;85061.24;;;33.40;28.24
73974;BME280;62336;-26.094;27.994;2023-02-03T07:40:35;85059.27;;;33.64;28.51
73974;BME280;62336;-26.094;27.994;2023-02-03T07:43:00;85059.35;;;33.73;27.56
73974;BME280;62336;-26.094;27.994;2023-02-03T07:45:27;85055.70;;;33.87;27.31
73974;BME280;62336;-26.094;27.994;2023-02-03T07:47:52;85051.48;;;33.72;27.58
73974;BME280;62336;-26.094;27.994;2023-02-03T07:50:17;85050.99;;;33.52;27.07
73974;BME280;62336;-26.094;27.994;2023-02-03T07:52:43;85049.65;;;33.41;27.51
73974;BME280;62336;-26.094;27.994;2023-02-03T07:55:09;85045.11;;;34.21;27.24
73974;BME280;62336;-26.094;27.994;2023-02-03T07:57:35;85047.65;;;34.64;26.25
73974;BME280;62336;-26.094;27.994;2023-02-03T08:00:00;85044.04;;;34.77;25.33
73974;BME280;62336;-26.094;27.994;2023-02-03T08:04:38;85045.96;;;33.08;28.10
73974;BME280;62336;-26.094;27.994;2023-02-03T08:07:04;85037.92;;;32.82;27.42
73974;BME280;62336;-26.094;27.994;2023-02-03T08:09:30;85035.08;;;34.00;26.69
73974;BME280;62336;-26.094;27.994;2023-02-03T08:11:54;85026.59;;;34.17;27.01
73974;BME280;62336;-26.094;27.994;2023-02-03T08:14:19;85026.80;;;34.56;25.90
73974;BME280;62336;-26.094;27.994;2023-02-03T08:16:45;85025.25;;;34.27;26.59
73974;BME280;62336;-26.094;27.994;2023-02-03T08:19:10;85022.16;;;34.50;26.42
73974;BME280;62336;-26.094;27.994;2023-02-03T08:21:36;85023.66;;;34.50;26.24
73974;BME280;62336;-26.094;27.994;2023-02-03T08:24:02;85019.05;;;34.83;26.02
73974;BME280;62336;-26.094;27.994;2023-02-03T08:26:27;85011.11;;;34.56;25.71
73974;BME280;62336;-26.094;27.994;2023-02-03T08:28:53;85010.14;;;34.52;26.50
73974;BME280;62336;-26.094;27.994;2023-02-03T08:31:19;85003.80;;;34.66;25.83
73974;BME280;62336;-26.094;27.994;2023-02-03T08:33:44;85004.51;;;34.46;25.87
73974;BME280;62336;-26.094;27.994;2023-02-03T08:36:10;85000.49;;;34.91;25.44
73974;BME280;62336;-26.094;27.994;2023-02-03T08:38:35;85001.59;;;34.62;25.80
73974;BME280;62336;-26.094;27.994;2023-02-03T08:41:00;85000.09;;;35.17;25.32
73974;BME280;62336;-26.094;27.994;2023-02-03T08:43:25;84991.90;;;35.83;25.10
73974;BME280;62336;-26.094;27.994;2023-02-03T08:45:50;84992.15;;;35.78;25.52
73974;BME280;62336;-26.094;27.994;2023-02-03T08:48:16;84990.99;;;35.73;25.40
73974;BME280;62336;-26.094;27.994;2023-02-03T08:50:42;84993.43;;;35.06;25.67
73974;BME280;62336;-26.094;27.994;2023-02-03T08:53:07;84991.13;;;35.32;26.03
73974;BME280;62336;-26.094;27.994;2023-02-03T08:55:31;84985.24;;;35.28;24.56
73974;BME280;62336;-26.094;27.994;2023-02-03T08:57:57;84985.71;;;34.95;25.00
73974;BME280;62336;-26.094;27.994;2023-02-03T09:00:23;84984.91;;;35.60;25.13
73974;BME280;62336;-26.094;27.994;2023-02-03T09:02:48;84983.77;;;35.76;24.45
73974;BME280;62336;-26.094;27.994;2023-02-03T09:05:13;84978.99;;;36.62;24.18
73974;BME280;62336;-26.094;27.994;2023-02-03T09:07:38;84977.99;;;36.22;24.19
73974;BME280;62336;-26.094;27.994;2023-02-03T09:10:04;84979.56;;;36.10;23.89
73974;BME280;62336;-26.094;27.994;2023-02-03T09:12:30;84976.60;;;35.91;23.72
73974;BME280;62336;-26.094;27.994;2023-02-03T09:14:54;84970.45;;;36.48;23.19
73974;BME280;62336;-26.094;27.994;2023-02-03T09:17:20;84966.15;;;36.62;23.21
73974;BME280;62336;-26.094;27.994;2023-02-03T09:19:45;84965.03;;;37.27;23.05
73974;BME280;62336;-26.094;27.994;2023-02-03T09:22:10;84961.37;;;36.96;22.64
73974;BME280;62336;-26.094;27.994;2023-02-03T09:24:35;84957.52;;;37.29;22.70
73974;BME280;62336;-26.094;27.994;2023-02-03T09:27:01;84958.59;;;36.45;22.78
73974;BME280;62336;-26.094;27.994;2023-02-03T09:29:26;84953.00;;;37.15;22.57
73974;BME280;62336;-26.094;27.994;2023-02-03T09:31:52;84953.64;;;37.23;22.57
73974;BME280;62336;-26.094;27.994;2023-02-03T09:34:17;84944.54;;;37.03;23.24
73974;BME280;62336;-26.094;27.994;2023-02-03T09:36:42;84939.66;;;36.39;23.29
73974;BME280;62336;-26.094;27.994;2023-02-03T09:39:07;84938.43;;;36.97;23.13
73974;BME280;62336;-26.094;27.994;2023-02-03T09:41:46;84938.03;;;37.32;22.22
73974;BME280;62336;-26.094;27.994;2023-02-03T09:44:02;84938.03;;;37.43;22.41
73974;BME280;62336;-26.094;27.994;2023-02-03T09:46:25;84937.91;;;37.63;21.87
73974;BME280;62336;-26.094;27.994;2023-02-03T09:48:51;84931.40;;;37.45;21.45
73974;BME280;62336;-26.094;27.994;2023-02-03T09:51:19;84925.23;;;37.07;22.61
73974;BME280;62336;-26.094;27.994;2023-02-03T09:53:43;84927.37;;;36.68;23.16
73974;BME280;62336;-26.094;27.994;2023-02-03T09:56:03;84925.36;;;36.67;21.94
73974;BME280;62336;-26.094;27.994;2023-02-03T09:58:33;84928.59;;;37.21;21.49
73974;BME280;62336;-26.094;27.994;2023-02-03T10:00:57;84924.62;;;37.41;23.26
73974;BME280;62336;-26.094;27.994;2023-02-03T10:03:27;84921.06;;;37.69;21.83
73974;BME280;62336;-26.094;27.994;2023-02-03T10:05:55;84917.59;;;37.13;22.19
73974;BME280;62336;-26.094;27.994;2023-02-03T10:08:15;84921.99;;;37.63;21.77
73974;BME280;62336;-26.094;27.994;2023-02-03T10:10:39;84914.18;;;37.06;21.44
73974;BME280;62336;-26.094;27.994;2023-02-03T10:13:08;84909.80;;;37.57;21.04
73974;BME280;62336;-26.094;27.994;2023-02-03T10:17:55;84903.00;;;37.76;20.80
73974;BME280;62336;-26.094;27.994;2023-02-03T10:19:45;84901.64;;;35.81;21.81
73974;BME280;62336;-26.094;27.994;2023-02-03T10:22:12;84902.05;;;38.01;20.41
73974;BME280;62336;-26.094;27.994;2023-02-03T10:24:39;84901.19;;;37.55;21.01
73974;BME280;62336;-26.094;27.994;2023-02-03T10:26:58;84898.91;;;37.23;21.36
73974;BME280;62336;-26.094;27.994;2023-02-03T10:29:29;84892.81;;;37.55;20.88
73974;BME280;62336;-26.094;27.994;2023-02-03T10:31:49;84891.79;;;37.10;21.38
73974;BME280;62336;-26.094;27.994;2023-02-03T10:34:15;84893.79;;;37.65;21.37
73974;BME280;62336;-26.094;27.994;2023-02-03T10:36:49;84886.86;;;36.94;21.69
73974;BME280;62336;-26.094;27.994;2023-02-03T10:39:14;84884.70;;;37.57;20.73
73974;BME280;62336;-26.094;27.994;2023-02-03T10:41:31;84883.33;;;37.75;20.95
73974;BME280;62336;-26.094;27.994;2023-02-03T10:43:55;84876.23;;;37.29;20.79
73974;BME280;62336;-26.094;27.994;2023-02-03T10:46:25;84871.81;;;37.27;20.85
73974;BME280;62336;-26.094;27.994;2023-02-03T10:48:45;84867.87;;;37.56;21.07
73974;BME280;62336;-26.094;27.994;2023-02-03T10:51:18;84861.16;;;37.83;20.66
73974;BME280;62336;-26.094;27.994;2023-02-03T10:53:36;84858.22;;;37.34;21.04
73974;BME280;62336;-26.094;27.994;2023-02-03T10:56:04;84854.26;;;37.74;20.42
73974;BME280;62336;-26.094;27.994;2023-02-03T10:58:28;84854.93;;;37.74;20.75
73974;BME280;62336;-26.094;27.994;2023-02-03T11:00:55;84851.38;;;37.48;20.86
73974;BME280;62336;-26.094;27.994;2023-02-03T11:03:22;84851.48;;;37.30;20.94
73974;BME280;62336;-26.094;27.994;2023-02-03T11:05:42;84848.00;;;37.58;20.62
73974;BME280;62336;-26.094;27.994;2023-02-03T11:08:14;84843.62;;;37.79;20.79
73974;BME280;62336;-26.094;27.994;2023-02-03T11:10:34;84840.92;;;37.59;21.44
73974;BME280;62336;-26.094;27.994;2023-02-03T11:15:23;84840.80;;;37.63;22.08
73974;BME280;62336;-26.094;27.994;2023-02-03T11:17:49;84837.70;;;37.77;21.15
73974;BME280;62336;-26.094;27.994;2023-02-03T11:20:15;84831.51;;;37.40;20.68
73974;BME280;62336;-26.094;27.994;2023-02-03T11:22:41;84830.32;;;37.74;20.07
73974;BME280;62336;-26.094;27.994;2023-02-03T11:25:18;84826.08;;;37.46;20.69
73974;BME280;62336;-26.094;27.994;2023-02-03T11:27:31;84829.24;;;37.65;20.42
73974;BME280;62336;-26.094;27.994;2023-02-03T11:30:08;84828.08;;;37.44;21.07
73974;BME280;62336;-26.094;27.994;2023-02-03T11:32:26;84820.60;;;36.68;20.90
73974;BME280;62336;-26.094;27.994;2023-02-03T11:34:48;84821.09;;;37.12;20.75
73974;BME280;62336;-26.094;27.994;2023-02-03T11:39:36;84818.06;;;36.98;23.12
73974;BME280;62336;-26.094;27.994;2023-02-03T11:42:08;84817.03;;;36.26;23.93
73974;BME280;62336;-26.094;27.994;2023-02-03T11:44:29;84814.49;;;36.61;24.88
73974;BME280;62336;-26.094;27.994;2023-02-03T11:46:56;84809.94;;;36.51;24.20
73974;BME280;62336;-26.094;27.994;2023-02-03T11:51:47;84806.65;;;36.33;26.93
73974;BME280;62336;-26.094;27.994;2023-02-03T11:54:20;84797.66;;;36.01;27.20
73974;BME280;62336;-26.094;27.994;2023-02-03T11:59:12;84792.53;;;36.00;26.86
73974;BME280;62336;-26.094;27.994;2023-02-03T12:04:02;84783.79;;;36.31;25.60
73974;BME280;62336;-26.094;27.994;2023-02-03T12:06:24;84781.26;;;36.12;26.44
73974;BME280;62336;-26.094;27.994;2023-02-03T12:08:51;84779.29;;;35.30;26.66
73974;BME280;62336;-26.094;27.994;2023-02-03T12:11:12;84776.75;;;35.87;27.21
73974;BME280;62336;-26.094;27.994;2023-02-03T12:13:44;84775.43;;;36.00;27.45
73974;BME280;62336;-26.094;27.994;2023-02-03T12:16:07;84775.59;;;36.03;27.14
73974;BME280;62336;-26.094;27.994;2023-02-03T12:18:32;84773.64;;;35.87;26.53
73974;BME280;62336;-26.094;27.994;2023-02-03T12:20:56;84771.49;;;35.65;25.81
73974;BME280;62336;-26.094;27.994;2023-02-03T12:23:22;84769.19;;;35.87;25.63
73974;BME280;62336;-26.094;27.994;2023-02-03T12:25:45;84759.98;;;36.19;25.45
73974;BME280;62336;-26.094;27.994;2023-02-03T12:28:11;84759.83;;;36.32;25.70
73974;BME280;62336;-26.094;27.994;2023-02-03T12:30:31;84757.22;;;36.84;25.06
73974;BME280;62336;-26.094;27.994;2023-02-03T12:32:57;84756.36;;;35.73;25.46
73974;BME280;62336;-26.094;27.994;2023-02-03T12:35:22;84748.33;;;35.33;25.88
73974;BME280;62336;-26.094;27.994;2023-02-03T12:37:47;84746.73;;;35.47;25.63
73974;BME280;62336;-26.094;27.994;2023-02-03T12:40:15;84745.50;;;34.56;26.61
73974;BME280;62336;-26.094;27.994;2023-02-03T12:42:38;84738.88;;;34.92;27.67
73974;BME280;62336;-26.094;27.994;2023-02-03T12:45:02;84729.30;;;34.91;28.70
73974;BME280;62336;-26.094;27.994;2023-02-03T12:47:29;84719.53;;;34.64;28.37
73974;BME280;62336;-26.094;27.994;2023-02-03T12:49:53;84719.80;;;35.43;29.35
73974;BME280;62336;-26.094;27.994;2023-02-03T12:52:22;84720.46;;;35.05;29.43
73974;BME280;62336;-26.094;27.994;2023-02-03T12:54:45;84717.49;;;34.47;30.38
73974;BME280;62336;-26.094;27.994;2023-02-03T12:57:16;84713.99;;;34.46;29.96
73974;BME280;62336;-26.094;27.994;2023-02-03T12:59:32;84702.05;;;34.80;30.04
73974;BME280;62336;-26.094;27.994;2023-02-03T13:01:59;84697.05;;;34.71;29.97
73974;BME280;62336;-26.094;27.994;2023-02-03T13:04:30;84691.10;;;34.93;29.41
73974;BME280;62336;-26.094;27.994;2023-02-03T13:06:52;84686.26;;;34.47;29.44
73974;BME280;62336;-26.094;27.994;2023-02-03T13:09:22;84684.45;;;35.18;27.91
73974;BME280;62336;-26.094;27.994;2023-02-03T13:11:42;84689.21;;;35.10;29.29
73974;BME280;62336;-26.094;27.994;2023-02-03T13:14:09;84688.90;;;35.04;27.99
73974;BME280;62336;-26.094;27.994;2023-02-03T13:16:32;84690.42;;;35.64;28.07
73974;BME280;62336;-26.094;27.994;2023-02-03T13:18:57;84696.93;;;36.34;27.94
73974;BME280;62336;-26.094;27.994;2023-02-03T13:21:19;84708.21;;;36.26;28.92
73974;BME280;62336;-26.094;27.994;2023-02-03T13:23:44;84709.88;;;35.87;28.76
73974;BME280;62336;-26.094;27.994;2023-02-03T13:26:21;84710.16;;;36.02;27.61
73974;BME280;62336;-26.094;27.994;2023-02-03T13:28:46;84712.31;;;35.85;26.73
73974;BME280;62336;-26.094;27.994;2023-02-03T13:33:41;84698.32;;;35.26;27.80
73974;BME280;62336;-26.094;27.994;2023-02-03T13:35:58;84695.99;;;34.59;28.28
73974;BME280;62336;-26.094;27.994;2023-02-03T13:38:28;84696.29;;;34.02;29.18
73974;BME280;62336;-26.094;27.994;2023-02-03T13:40:50;84693.64;;;34.00;29.42
73974;BME280;62336;-26.094;27.994;2023-02-03T13:43:12;84691.08;;;34.00;29.00
73974;BME280;62336;-26.094;27.994;2023-02-03T13:45:35;84692.59;;;34.19;27.41
73974;BME280;62336;-26.094;27.994;2023-02-03T13:48:05;84692.34;;;32.66;28.72
73974;BME280;62336;-26.094;27.994;2023-02-03T13:50:25;84689.85;;;32.86;28.72
73974;BME280;62336;-26.094;27.994;2023-02-03T13:52:56;84683.02;;;32.80;29.23
73974;BME280;62336;-26.094;27.994;2023-02-03T13:57:39;84688.18;;;33.07;28.75
73974;BME280;62336;-26.094;27.994;2023-02-03T14:00:10;84701.64;;;33.56;28.66
73974;BME280;62336;-26.094;27.994;2023-02-03T14:04:57;84705.50;;;33.56;28.23
73974;BME280;62336;-26.094;27.994;2023-02-03T14:07:27;84700.68;;;32.94;28.98
73974;BME280;62336;-26.094;27.994;2023-02-03T14:09:46;84699.67;;;33.16;29.40
73974;BME280;62336;-26.094;27.994;2023-02-03T14:14:56;84706.31;;;32.83;30.34
73974;BME280;62336;-26.094;27.994;2023-02-03T14:17:02;84707.10;;;32.91;30.39
73974;BME280;62336;-26.094;27.994;2023-02-03T14:21:55;84707.04;;;32.95;30.39
73974;BME280;62336;-26.094;27.994;2023-02-03T14:24:18;84707.72;;;32.43;30.31
73974;BME280;62336;-26.094;27.994;2023-02-03T14:26:44;84709.34;;;32.64;30.44
73974;BME280;62336;-26.094;27.994;2023-02-03T14:29:22;84713.99;;;32.33;30.32
73974;BME280;62336;-26.094;27.994;2023-02-03T14:34:06;84705.05;;;32.64;29.81
73974;BME280;62336;-26.094;27.994;2023-02-03T14:36:34;84701.61;;;32.59;30.54
73974;BME280;62336;-26.094;27.994;2023-02-03T14:38:50;84706.19;;;32.48;30.66
73974;BME280;62336;-26.094;27.994;2023-02-03T14:41:20;84702.75;;;32.78;30.76
73974;BME280;62336;-26.094;27.994;2023-02-03T14:43:44;84694.56;;;32.35;31.23
73974;BME280;62336;-26.094;27.994;2023-02-03T14:46:23;84681.98;;;32.23;31.37
73974;BME280;62336;-26.094;27.994;2023-02-03T14:48:45;84684.45;;;32.19;31.61
73974;BME280;62336;-26.094;27.994;2023-02-03T14:51:04;84692.83;;;32.58;31.44
73974;BME280;62336;-26.094;27.994;2023-02-03T14:53:37;84696.17;;;32.82;31.28
73974;BME280;62336;-26.094;27.994;2023-02-03T14:55:55;84700.44;;;32.48;31.16
73974;BME280;62336;-26.094;27.994;2023-02-03T14:58:21;84704.20;;;33.04;30.91
73974;BME280;62336;-26.094;27.994;2023-02-03T15:00:38;84707.58;;;32.82;30.54
73974;BME280;62336;-26.094;27.994;2023-02-03T15:03:17;84713.93;;;33.40;30.28
73974;BME280;62336;-26.094;27.994;2023-02-03T15:05:37;84719.43;;;33.09;30.43
73974;BME280;62336;-26.094;27.994;2023-02-03T15:07:54;84721.96;;;33.06;29.75
73974;BME280;62336;-26.094;27.994;2023-02-03T15:10:22;84720.43;;;32.88;29.79
73974;BME280;62336;-26.094;27.994;2023-02-03T15:12:47;84720.70;;;32.74;30.12
73974;BME280;62336;-26.094;27.994;2023-02-03T15:15:18;84716.14;;;33.05;29.91
73974;BME280;62336;-26.094;27.994;2023-02-03T15:17:37;84713.76;;;33.56;29.79
73974;BME280;62336;-26.094;27.994;2023-02-03T15:22:30;84713.75;;;33.17;30.36
73974;BME280;62336;-26.094;27.994;2023-02-03T15:24:55;84706.53;;;33.49;30.44
73974;BME280;62336;-26.094;27.994;2023-02-03T15:27:21;84704.85;;;33.17;30.41
73974;BME280;62336;-26.094;27.994;2023-02-03T15:29:44;84706.65;;;33.23;30.22
73974;BME280;62336;-26.094;27.994;2023-02-03T15:32:13;84704.22;;;33.58;30.10
73974;BME280;62336;-26.094;27.994;2023-02-03T15:34:40;84704.68;;;33.98;29.75
73974;BME280;62336;-26.094;27.994;2023-02-03T15:37:06;84704.73;;;33.93;29.95
73974;BME280;62336;-26.094;27.994;2023-02-03T15:39:33;84707.12;;;33.81;30.06
73974;BME280;62336;-26.094;27.994;2023-02-03T15:41:52;84709.43;;;33.36;30.76
73974;BME280;62336;-26.094;27.994;2023-02-03T15:44:26;84709.87;;;33.18;31.05
73974;BME280;62336;-26.094;27.994;2023-02-03T15:46:46;84715.53;;;33.41;30.99
73974;BME280;62336;-26.094;27.994;2023-02-03T15:49:12;84720.99;;;33.52;31.36
73974;BME280;62336;-26.094;27.994;2023-02-03T15:51:36;84720.98;;;33.70;31.22
73974;BME280;62336;-26.094;27.994;2023-02-03T15:54:02;84723.81;;;33.60;31.11
73974;BME280;62336;-26.094;27.994;2023-02-03T15:56:31;84722.20;;;33.83;30.81
73974;BME280;62336;-26.094;27.994;2023-02-03T15:58:50;84721.19;;;33.60;31.04
73974;BME280;62336;-26.094;27.994;2023-02-03T16:01:20;84719.98;;;33.48;31.12
73974;BME280;62336;-26.094;27.994;2023-02-03T16:05:50;84736.04;;;31.55;34.16
73974;BME280;62336;-26.094;27.994;2023-02-03T16:08:25;84744.63;;;31.85;33.64
73974;BME280;62336;-26.094;27.994;2023-02-03T16:10:40;84745.76;;;32.72;32.86
73974;BME280;62336;-26.094;27.994;2023-02-03T16:13:18;84738.33;;;32.57;32.40
73974;BME280;62336;-26.094;27.994;2023-02-03T16:15:31;84736.45;;;33.02;31.77
73974;BME280;62336;-26.094;27.994;2023-02-03T16:17:57;84736.87;;;33.60;31.56
73974;BME280;62336;-26.094;27.994;2023-02-03T16:20:24;84738.05;;;33.62;31.22
73974;BME280;62336;-26.094;27.994;2023-02-03T16:23:00;84737.50;;;33.47;31.32
73974;BME280;62336;-26.094;27.994;2023-02-03T16:25:14;84734.35;;;33.42;31.06
73974;BME280;62336;-26.094;27.994;2023-02-03T16:27:37;84731.69;;;33.39;30.66
73974;BME280;62336;-26.094;27.994;2023-02-03T16:30:19;84728.25;;;33.27;30.52
73974;BME280;62336;-26.094;27.994;2023-02-03T16:32:28;84728.79;;;33.44;29.74
73974;BME280;62336;-26.094;27.994;2023-02-03T16:34:53;84733.79;;;33.16;29.67
73974;BME280;62336;-26.094;27.994;2023-02-03T16:37:23;84731.23;;;32.99;29.95
73974;BME280;62336;-26.094;27.994;2023-02-03T16:39:44;84722.82;;;33.44;28.98
73974;BME280;62336;-26.094;27.994;2023-02-03T16:42:14;84725.44;;;33.32;28.99
73974;BME280;62336;-26.094;27.994;2023-02-03T16:44:35;84730.38;;;33.28;29.98
73974;BME280;62336;-26.094;27.994;2023-02-03T16:46:59;84733.02;;;32.80;30.25
73974;BME280;62336;-26.094;27.994;2023-02-03T16:49:25;84739.17;;;33.17;29.74
73974;BME280;62336;-26.094;27.994;2023-02-03T16:51:51;84746.99;;;33.07;29.32
73974;BME280;62336;-26.094;27.994;2023-02-03T16:54:16;84757.97;;;33.01;29.27
73974;BME280;62336;-26.094;27.994;2023-02-03T16:56:43;84766.28;;;32.97;29.02
73974;BME280;62336;-26.094;27.994;2023-02-03T16:59:08;84775.87;;;33.14;29.19
73974;BME280;62336;-26.094;27.994;2023-02-03T17:01:33;84778.34;;;32.95;29.21
73974;BME280;62336;-26.094;27.994;2023-02-03T17:03:58;84779.84;;;33.30;28.90
73974;BME280;62336;-26.094;27.994;2023-02-03T17:06:24;84776.80;;;33.15;29.14